Time;durP1;ratioP1;P1;durP2;ratioP2;P2;SDS_P1;SDS_P2;PMS_P1;PMS_P2;Temp;Humidity;BMP_temperature;BMP_pressure;BME280_temperature;BME280_humidity;BME280_pressure;Samples;Min_cycle;Max_cycle;Signal;HPM_P1;HPM_P2
2020/12/04 00:00:34;;;;;;;13.45;6.90;;;4.20;99.90;;;;;;5029685;28;20033;-86
2020/12/04 00:02:59;;;;;;;9.35;5.38;;;4.20;99.90;;;;;;5006078;28;20026;-86
2020/12/04 00:05:25;;;;;;;7.70;5.18;;;4.20;99.90;;;;;;5006442;28;20033;-88
2020/12/04 00:07:51;;;;;;;9.10;4.80;;;4.20;99.90;;;;;;5013890;28;20045;-84
2020/12/04 00:10:16;;;;;;;10.88;5.80;;;4.20;99.90;;;;;;5014109;28;20040;-86
2020/12/04 00:12:42;;;;;;;9.27;5.75;;;4.20;99.90;;;;;;5013958;28;20079;-88
2020/12/04 00:15:08;;;;;;;8.38;5.32;;;4.20;99.90;;;;;;5030262;28;20037;-85
2020/12/04 00:17:35;;;;;;;8.95;4.70;;;4.30;99.90;;;;;;5029895;28;20033;-85
2020/12/04 00:20:00;;;;;;;8.32;4.95;;;4.20;99.90;;;;;;5013824;28;20168;-86
2020/12/04 00:22:26;;;;;;;8.18;4.55;;;4.30;99.90;;;;;;5013921;28;20045;-86
2020/12/04 00:24:52;;;;;;;9.35;5.13;;;4.30;99.90;;;;;;5013940;28;20045;-88
2020/12/04 00:27:17;;;;;;;8.57;4.72;;;4.30;99.90;;;;;;5029861;28;20030;-87
2020/12/04 00:29:43;;;;;;;10.20;5.32;;;4.30;99.90;;;;;;5013927;28;20048;-88
2020/12/04 00:32:09;;;;;;;7.75;4.35;;;4.30;99.90;;;;;;5029808;28;20036;-86
2020/12/04 00:34:34;;;;;;;9.55;4.90;;;4.20;99.90;;;;;;5013220;28;20025;-86
2020/12/04 00:37:00;;;;;;;8.55;4.80;;;4.30;99.90;;;;;;5013412;28;20097;-86
2020/12/04 00:39:25;;;;;;;7.78;4.07;;;4.30;99.90;;;;;;5009295;28;20104;-87
2020/12/04 00:41:51;;;;;;;8.43;4.97;;;4.30;99.90;;;;;;5010135;28;20041;-87
2020/12/04 00:44:17;;;;;;;7.70;4.65;;;4.30;99.90;;;;;;5026002;28;20181;-87
2020/12/04 00:46:43;;;;;;;8.55;4.38;;;4.30;99.90;;;;;;5026254;28;20037;-87
2020/12/04 00:49:09;;;;;;;11.43;5.68;;;4.30;99.90;;;;;;5009944;28;20026;-87
2020/12/04 00:51:36;;;;;;;7.65;4.40;;;4.30;99.90;;;;;;5010120;28;20034;-87
2020/12/04 00:54:04;;;;;;;9.10;5.45;;;4.30;99.90;;;;;;5010211;28;20030;-87
2020/12/04 00:56:35;;;;;;;8.90;5.47;;;4.30;99.90;;;;;;5009822;28;20101;-86
2020/12/04 00:59:10;;;;;;;10.77;5.88;;;4.30;99.90;;;;;;4994541;28;20042;-86
2020/12/04 01:01:36;;;;;;;8.80;5.20;;;4.30;99.90;;;;;;5026001;28;20072;-86
2020/12/04 01:04:22;;;;;;;7.60;5.25;;;4.20;99.90;;;;;;5009669;28;20414;-86
2020/12/04 01:06:47;;;;;;;9.50;4.75;;;4.20;99.90;;;;;;4949716;29;20043;-85
2020/12/04 01:09:14;;;;;;;7.22;4.65;;;4.30;99.90;;;;;;4982742;28;20055;-86
2020/12/04 01:11:39;;;;;;;7.78;4.63;;;4.30;99.90;;;;;;4985800;28;20043;-85
2020/12/04 01:14:06;;;;;;;9.70;5.55;;;4.30;99.90;;;;;;4971277;28;20041;-85
2020/12/04 01:16:32;;;;;;;8.18;5.05;;;4.30;99.90;;;;;;4988904;28;20033;-87
2020/12/04 01:18:57;;;;;;;9.05;5.22;;;4.30;99.90;;;;;;5005058;28;20053;-85
2020/12/04 01:21:23;;;;;;;11.65;6.40;;;4.30;99.90;;;;;;4988665;28;20049;-89
2020/12/04 01:23:51;;;;;;;8.13;5.05;;;4.30;99.90;;;;;;4988564;28;20038;-85
2020/12/04 01:26:17;;;;;;;10.40;5.75;;;4.30;99.90;;;;;;4988405;28;20038;-85
2020/12/04 01:28:42;;;;;;;7.78;4.43;;;4.40;99.90;;;;;;4988461;28;20041;-87
2020/12/04 01:31:09;;;;;;;10.25;5.22;;;4.30;99.90;;;;;;4988645;28;20540;-84
2020/12/04 01:33:35;;;;;;;9.93;6.28;;;4.30;99.90;;;;;;4988715;28;20491;-87
2020/12/04 01:36:01;;;;;;;7.63;4.07;;;4.40;99.90;;;;;;5004353;28;20042;-86
2020/12/04 01:38:27;;;;;;;7.32;4.38;;;4.30;99.90;;;;;;4988395;28;20045;-85
2020/12/04 01:40:58;;;;;;;7.15;4.38;;;4.40;99.90;;;;;;4988412;28;20133;-85
2020/12/04 01:43:24;;;;;;;8.43;4.22;;;4.30;99.90;;;;;;4994912;28;20037;-84
2020/12/04 01:45:50;;;;;;;7.65;4.18;;;4.40;99.90;;;;;;5008997;28;20033;-87
2020/12/04 01:48:15;;;;;;;6.82;4.13;;;4.30;99.90;;;;;;5009025;28;20064;-87
2020/12/04 01:50:41;;;;;;;9.10;4.50;;;4.30;99.90;;;;;;5008964;28;20090;-87
2020/12/04 01:53:07;;;;;;;6.75;3.42;;;4.40;99.90;;;;;;5008857;28;20124;-86
2020/12/04 01:55:32;;;;;;;7.47;3.58;;;4.40;99.90;;;;;;5008750;28;20030;-87
2020/12/04 01:58:03;;;;;;;6.57;4.03;;;4.30;99.90;;;;;;5008782;28;20034;-85
2020/12/04 02:00:29;;;;;;;7.07;3.78;;;4.40;99.90;;;;;;5008960;28;20585;-86
2020/12/04 02:02:54;;;;;;;5.90;2.90;;;4.30;99.90;;;;;;5008885;28;20038;-86
2020/12/04 02:05:20;;;;;;;11.32;4.50;;;4.30;99.90;;;;;;5024765;28;20034;-85
2020/12/04 02:08:04;;;;;;;6.88;3.90;;;4.40;99.90;;;;;;5025980;28;20057;-85
2020/12/04 02:10:38;;;;;;;6.38;3.45;;;4.30;99.90;;;;;;4992526;28;20065;-85
2020/12/04 02:13:05;;;;;;;7.97;4.20;;;4.30;99.90;;;;;;5025109;28;20552;-86
2020/12/04 02:15:32;;;;;;;7.35;3.90;;;4.30;99.90;;;;;;5022094;28;20040;-85
2020/12/04 02:18:03;;;;;;;6.70;4.03;;;4.40;99.90;;;;;;5028374;28;20208;-85
2020/12/04 02:20:32;;;;;;;;;;;4.30;99.90;;;;;;5016600;28;20040;-85
2020/12/04 02:22:57;;;;;;;8.57;3.92;;;4.30;99.90;;;;;;5032325;28;20288;-84
2020/12/04 02:25:23;;;;;;;9.00;4.05;;;4.40;99.90;;;;;;5016119;28;20057;-88
2020/12/04 02:27:50;;;;;;;5.80;3.35;;;4.30;99.90;;;;;;5016227;28;20064;-86
2020/12/04 02:30:22;;;;;;;9.13;3.92;;;4.30;99.90;;;;;;5015835;28;20041;-85
2020/12/04 02:32:47;;;;;;;8.70;4.13;;;4.30;99.90;;;;;;5032375;28;20037;-85
2020/12/04 02:35:13;;;;;;;9.55;3.60;;;4.30;99.90;;;;;;5015735;28;20061;-86
2020/12/04 02:37:39;;;;;;;8.00;4.10;;;4.30;99.90;;;;;;5015653;28;20034;-86
2020/12/04 02:40:05;;;;;;;6.72;3.85;;;4.30;99.90;;;;;;5032237;28;20045;-85
2020/12/04 02:42:31;;;;;;;8.68;3.22;;;4.30;99.90;;;;;;5015829;28;20045;-85
2020/12/04 02:44:56;;;;;;;6.35;3.30;;;4.30;99.90;;;;;;5015670;28;20033;-84
2020/12/04 02:47:26;;;;;;;7.47;3.05;;;4.30;99.90;;;;;;5032058;28;20037;-86
2020/12/04 02:49:52;;;;;;;5.50;2.63;;;4.30;99.90;;;;;;5015515;28;20045;-86
2020/12/04 02:52:24;;;;;;;7.95;3.58;;;4.30;99.90;;;;;;5015235;28;20330;-87
2020/12/04 02:54:50;;;;;;;5.40;2.55;;;4.30;99.90;;;;;;5015174;28;20061;-86
2020/12/04 02:57:16;;;;;;;7.63;3.72;;;4.30;99.90;;;;;;5015332;28;20024;-86
2020/12/04 02:59:43;;;;;;;8.50;3.40;;;4.30;99.90;;;;;;5015084;28;20493;-87
2020/12/04 03:02:09;;;;;;;6.00;2.80;;;4.30;99.90;;;;;;5015237;28;20040;-86
2020/12/04 03:04:36;;;;;;;7.50;3.50;;;4.30;99.90;;;;;;5031627;28;20033;-85
2020/12/04 03:07:01;;;;;;;6.82;3.25;;;4.30;99.90;;;;;;5031545;28;20064;-87
2020/12/04 03:09:27;;;;;;;6.80;3.53;;;4.30;99.90;;;;;;5011621;28;20053;-86
2020/12/04 03:11:54;;;;;;;7.45;3.92;;;4.30;99.90;;;;;;5040121;28;20030;-87
2020/12/04 03:14:20;;;;;;;8.38;4.60;;;4.30;99.90;;;;;;5046964;28;20393;-85
2020/12/04 03:16:46;;;;;;;7.35;3.90;;;4.30;99.90;;;;;;5042390;28;20129;-85
2020/12/04 03:19:12;;;;;;;6.75;3.30;;;4.30;99.90;;;;;;5030994;28;20080;-85
2020/12/04 03:21:37;;;;;;;6.38;3.22;;;4.30;99.90;;;;;;5040936;28;20049;-84
2020/12/04 03:24:03;;;;;;;7.13;3.53;;;4.40;99.90;;;;;;5044587;28;20037;-84
2020/12/04 03:26:28;;;;;;;4.82;2.55;;;4.30;99.90;;;;;;5047521;28;20029;-87
2020/12/04 03:28:54;;;;;;;7.50;3.95;;;4.40;99.90;;;;;;5030981;28;20076;-85
2020/12/04 03:31:20;;;;;;;6.82;3.00;;;4.40;99.90;;;;;;5031004;28;20036;-86
2020/12/04 03:33:45;;;;;;;8.20;3.85;;;4.40;99.90;;;;;;5048798;28;20425;-85
2020/12/04 03:36:14;;;;;;;6.15;2.88;;;4.40;99.90;;;;;;5014314;28;20060;-86
2020/12/04 03:38:40;;;;;;;7.13;3.00;;;4.40;99.90;;;;;;5005025;28;20029;-87
2020/12/04 03:41:05;;;;;;;5.65;3.17;;;4.40;99.90;;;;;;5047641;28;20040;-86
2020/12/04 03:43:31;;;;;;;5.97;3.13;;;4.40;99.90;;;;;;5034385;28;20120;-85
2020/12/04 03:45:57;;;;;;;5.88;2.72;;;4.40;99.90;;;;;;5034003;28;20084;-86
2020/12/04 03:48:22;;;;;;;6.45;3.42;;;4.40;99.90;;;;;;5041635;28;20418;-85
2020/12/04 03:50:48;;;;;;;7.00;3.90;;;4.40;99.90;;;;;;5014296;28;20127;-86
2020/12/04 03:53:13;;;;;;;6.07;2.58;;;4.40;99.90;;;;;;5030632;28;20037;-84
2020/12/04 03:55:39;;;;;;;5.45;2.92;;;4.40;99.90;;;;;;5014044;28;20033;-86
2020/12/04 03:58:05;;;;;;;5.45;2.75;;;4.40;99.90;;;;;;5014164;28;20040;-86
2020/12/04 04:00:31;;;;;;;5.15;2.80;;;4.40;99.90;;;;;;5030458;28;20263;-84
2020/12/04 04:02:57;;;;;;;6.03;3.40;;;4.40;99.90;;;;;;5046892;28;20026;-84
2020/12/04 04:05:23;;;;;;;5.13;2.53;;;4.50;99.90;;;;;;5030043;28;20049;-85
2020/12/04 04:07:51;;;;;;;5.35;2.92;;;4.40;99.90;;;;;;5030381;28;20052;-85
2020/12/04 04:10:17;;;;;;;5.22;2.55;;;4.40;99.90;;;;;;5030245;28;20033;-85
2020/12/04 04:12:43;;;;;;;6.00;3.17;;;4.40;99.90;;;;;;5046933;28;20097;-84
2020/12/04 04:15:08;;;;;;;4.18;2.60;;;4.40;99.90;;;;;;5036152;28;20046;-84
2020/12/04 04:17:34;;;;;;;5.28;2.83;;;4.40;99.90;;;;;;5030310;28;20036;-84
2020/12/04 04:19:59;;;;;;;4.85;3.00;;;4.40;99.90;;;;;;5030325;28;20041;-86
2020/12/04 04:22:25;;;;;;;4.03;2.17;;;4.40;99.90;;;;;;5030364;28;20030;-84
2020/12/04 04:24:50;;;;;;;4.57;2.25;;;4.40;99.90;;;;;;5029940;28;20088;-83
2020/12/04 04:27:16;;;;;;;5.22;2.58;;;4.40;99.90;;;;;;5029985;28;20044;-85
2020/12/04 04:29:42;;;;;;;6.57;2.63;;;4.40;99.90;;;;;;5030160;28;20048;-85
2020/12/04 04:32:07;;;;;;;5.82;3.08;;;4.40;99.90;;;;;;5046558;28;20075;-86
2020/12/04 04:34:33;;;;;;;4.00;2.20;;;4.40;99.90;;;;;;5026746;28;20044;-85
2020/12/04 04:37:00;;;;;;;6.85;2.88;;;4.40;99.90;;;;;;5042475;28;20389;-84
2020/12/04 04:39:25;;;;;;;4.40;2.20;;;4.40;99.90;;;;;;5047081;28;20048;-86
2020/12/04 04:41:55;;;;;;;3.88;1.58;;;4.40;99.90;;;;;;5025682;28;20068;-84
2020/12/04 04:44:22;;;;;;;5.30;2.25;;;4.40;99.90;;;;;;5037281;28;20143;-85
2020/12/04 04:47:01;;;;;;;4.90;3.00;;;4.40;99.90;;;;;;5009893;28;20026;-85
2020/12/04 04:49:28;;;;;;;4.10;2.47;;;4.40;99.90;;;;;;5018503;28;20121;-85
2020/12/04 04:51:57;;;;;;;5.05;2.50;;;4.50;99.90;;;;;;5025349;28;20060;-86
2020/12/04 04:54:27;;;;;;;3.87;2.30;;;4.40;99.90;;;;;;5029758;28;20029;-83
2020/12/04 04:56:53;;;;;;;3.90;1.80;;;4.40;99.90;;;;;;5026291;28;20356;-85
2020/12/04 04:59:20;;;;;;;6.28;2.50;;;4.40;99.90;;;;;;5036009;28;20050;-84
2020/12/04 05:01:48;;;;;;;4.97;1.98;;;4.50;99.90;;;;;;5045805;28;20049;-85
2020/12/04 05:04:53;;;;;;;3.85;1.63;;;4.50;99.90;;;;;;5027770;28;20030;-83
2020/12/04 05:07:30;;;;;;;5.68;3.45;;;4.40;99.90;;;;;;4966117;28;20055;-85
2020/12/04 05:10:15;;;;;;;4.65;1.88;;;4.50;99.90;;;;;;4948282;29;20439;-85
2020/12/04 05:12:45;;;;;;;4.53;2.72;;;4.50;99.90;;;;;;4944366;29;20130;-85
2020/12/04 05:15:26;;;;;;;4.40;2.22;;;4.50;99.90;;;;;;4950024;29;20031;-85
2020/12/04 05:18:19;;;;;;;4.25;2.15;;;4.50;99.90;;;;;;4950193;29;20051;-86
2020/12/04 05:20:51;;;;;;;4.00;1.95;;;4.50;99.90;;;;;;4966158;29;20047;-84
2020/12/04 05:23:18;;;;;;;3.78;1.50;;;4.40;99.90;;;;;;4934294;29;20035;-86
2020/12/04 05:25:49;;;;;;;3.53;1.90;;;4.40;99.90;;;;;;4965564;29;20043;-84
2020/12/04 05:28:18;;;;;;;4.57;2.05;;;4.40;99.90;;;;;;4950020;29;20068;-84
2020/12/04 05:30:50;;;;;;;5.43;2.15;;;4.50;99.90;;;;;;4947004;29;20505;-84
2020/12/04 05:33:16;;;;;;;5.45;1.88;;;4.50;99.90;;;;;;4948134;29;20031;-85
2020/12/04 05:35:43;;;;;;;4.28;2.17;;;4.50;99.90;;;;;;4965366;29;20057;-84
2020/12/04 05:38:14;;;;;;;4.38;1.52;;;4.50;99.90;;;;;;4966119;29;20035;-84
2020/12/04 05:40:43;;;;;;;4.88;2.28;;;4.50;99.90;;;;;;4938614;29;20074;-87
2020/12/04 05:43:09;;;;;;;4.57;2.53;;;4.60;99.90;;;;;;4941493;28;20076;-85
2020/12/04 05:45:35;;;;;;;2.95;1.65;;;4.50;99.90;;;;;;5009369;28;20040;-86
2020/12/04 05:48:01;;;;;;;4.07;1.80;;;4.50;99.90;;;;;;5022635;28;20029;-86
2020/12/04 05:50:27;;;;;;;3.17;1.30;;;4.60;99.90;;;;;;5029805;28;20036;-85
2020/12/04 05:52:52;;;;;;;2.95;1.50;;;4.60;99.90;;;;;;5030831;28;20033;-85
2020/12/04 05:55:18;;;;;;;3.47;1.55;;;4.60;99.90;;;;;;5065790;28;20050;-86
2020/12/04 05:57:53;;;;;;;2.88;1.33;;;4.70;99.90;;;;;;5048066;28;20191;-84
2020/12/04 06:00:21;;;;;;;3.95;1.40;;;4.60;99.90;;;;;;5031123;28;20071;-84
2020/12/04 06:02:57;;;;;;;2.88;1.10;;;4.70;99.90;;;;;;5031709;28;20032;-86
2020/12/04 06:05:25;;;;;;;4.30;1.10;;;4.60;99.90;;;;;;5030401;28;20033;-83
2020/12/04 06:07:53;;;;;;;3.70;1.17;;;4.60;99.90;;;;;;5050341;28;20040;-84
2020/12/04 06:10:18;;;;;;;2.67;1.05;;;4.60;99.90;;;;;;5031652;28;20029;-85
2020/12/04 06:12:52;;;;;;;3.38;1.40;;;4.70;99.90;;;;;;5031437;28;20033;-84
2020/12/04 06:15:22;;;;;;;3.53;1.70;;;4.70;99.90;;;;;;5020947;28;20025;-84
2020/12/04 06:17:49;;;;;;;3.70;1.40;;;4.70;99.90;;;;;;5011584;28;20401;-84
2020/12/04 06:20:22;;;;;;;2.88;1.23;;;4.70;99.90;;;;;;5010476;28;20041;-86
2020/12/04 06:23:11;;;;;;;2.67;0.93;;;4.70;99.90;;;;;;5011291;28;20029;-85
2020/12/04 06:25:52;;;;;;;3.28;1.00;;;4.70;99.90;;;;;;5010981;28;20033;-84
2020/12/04 06:28:19;;;;;;;2.67;1.17;;;4.60;99.90;;;;;;5045808;28;20030;-85
2020/12/04 06:30:56;;;;;;;3.05;1.25;;;4.60;99.90;;;;;;5011664;28;20092;-86
2020/12/04 06:33:32;;;;;;;3.45;1.00;;;4.60;99.90;;;;;;5011941;28;20041;-84
2020/12/04 06:35:58;;;;;;;2.92;1.00;;;4.70;99.90;;;;;;5011522;28;20030;-85
2020/12/04 06:38:36;;;;;;;2.35;0.93;;;4.70;99.90;;;;;;5011687;28;20122;-85
2020/12/04 06:41:17;;;;;;;2.60;1.00;;;4.90;99.90;;;;;;5011443;28;20033;-86
2020/12/04 06:43:44;;;;;;;2.47;1.10;;;4.90;99.90;;;;;;5011791;28;20025;-85
2020/12/04 06:46:26;;;;;;;2.25;0.80;;;4.90;99.90;;;;;;5011684;28;20097;-84
2020/12/04 06:52:12;;;;;;;2.50;0.95;;;5.00;99.90;;;;;;5027881;28;20083;-84
2020/12/04 06:54:44;;;;;;;2.88;0.80;;;5.00;99.90;;;;;;5011746;28;20512;-85
2020/12/04 06:57:10;;;;;;;2.28;0.80;;;5.00;99.90;;;;;;5011585;28;20064;-86
2020/12/04 06:59:38;;;;;;;2.25;0.70;;;5.00;99.90;;;;;;5011448;28;20044;-85
2020/12/04 07:02:07;;;;;;;2.20;0.80;;;5.10;99.90;;;;;;5011546;28;20025;-84
2020/12/04 07:04:36;;;;;;;3.38;0.80;;;5.10;99.90;;;;;;5028599;28;20057;-85
2020/12/04 07:07:05;;;;;;;3.60;0.90;;;5.20;99.90;;;;;;5014871;28;20037;-85
2020/12/04 07:09:31;;;;;;;2.80;1.10;;;5.20;99.90;;;;;;5046438;28;20064;-85
2020/12/04 07:11:58;;;;;;;3.05;0.70;;;5.30;99.90;;;;;;5054511;28;20033;-84
2020/12/04 07:14:24;;;;;;;1.73;0.80;;;5.30;99.90;;;;;;5066755;28;20029;-85
2020/12/04 07:16:50;;;;;;;1.92;0.82;;;5.30;99.90;;;;;;5034576;28;20112;-84
2020/12/04 07:19:16;;;;;;;2.10;0.75;;;5.30;99.90;;;;;;5034604;28;20045;-84
2020/12/04 07:21:42;;;;;;;1.73;0.60;;;5.30;99.90;;;;;;5034565;28;20039;-84
2020/12/04 07:24:07;;;;;;;1.60;0.60;;;5.30;99.90;;;;;;5034817;28;20037;-84
2020/12/04 07:26:33;;;;;;;2.33;0.70;;;5.40;99.90;;;;;;5034648;28;20032;-85
2020/12/04 07:28:59;;;;;;;1.75;0.65;;;5.40;99.90;;;;;;5046586;28;20025;-85
2020/12/04 07:31:25;;;;;;;1.80;0.60;;;5.40;99.90;;;;;;5029500;28;20029;-86
2020/12/04 07:33:52;;;;;;;2.00;0.82;;;5.40;99.90;;;;;;5049343;28;20037;-85
2020/12/04 07:36:18;;;;;;;2.13;0.73;;;5.50;99.90;;;;;;5029283;28;20358;-86
2020/12/04 07:38:58;;;;;;;3.03;0.60;;;5.40;99.90;;;;;;5025519;28;20079;-85
2020/12/04 07:41:31;;;;;;;2.75;0.60;;;5.50;99.90;;;;;;5029261;28;20155;-84
2020/12/04 07:44:02;;;;;;;1.88;0.57;;;5.50;99.90;;;;;;5024599;28;20128;-84
2020/12/04 07:46:29;;;;;;;2.30;0.70;;;5.60;99.90;;;;;;5047332;28;20033;-84
2020/12/04 07:48:58;;;;;;;3.72;0.60;;;5.60;99.90;;;;;;5047314;28;20032;-84
2020/12/04 07:51:25;;;;;;;1.85;0.60;;;5.60;99.90;;;;;;5047465;28;20029;-84
2020/12/04 07:53:53;;;;;;;1.15;0.47;;;5.60;99.90;;;;;;5046953;28;20033;-85
2020/12/04 07:56:23;;;;;;;2.22;0.70;;;5.60;99.90;;;;;;5046949;28;20034;-84
2020/12/04 07:58:53;;;;;;;1.55;0.60;;;5.60;99.90;;;;;;5047087;28;20045;-87
2020/12/04 08:01:19;;;;;;;1.65;0.70;;;5.60;99.90;;;;;;5047164;28;20033;-84
2020/12/04 08:03:48;;;;;;;1.17;0.50;;;5.70;99.90;;;;;;5030053;28;20105;-85
2020/12/04 08:06:14;;;;;;;2.55;0.70;;;5.70;99.90;;;;;;5046146;28;20038;-84
2020/12/04 08:08:40;;;;;;;2.42;0.60;;;5.70;99.90;;;;;;5026279;28;20060;-83
2020/12/04 08:11:09;;;;;;;1.58;0.50;;;5.70;99.90;;;;;;5013227;28;20041;-85
2020/12/04 08:13:39;;;;;;;2.28;0.60;;;5.70;99.90;;;;;;5046009;28;20049;-84
2020/12/04 08:16:09;;;;;;;1.40;0.50;;;5.80;99.90;;;;;;5044721;28;20053;-84
2020/12/04 08:18:35;;;;;;;1.80;0.60;;;5.80;99.90;;;;;;5045843;28;20043;-84
2020/12/04 08:21:05;;;;;;;3.30;0.80;;;5.80;99.90;;;;;;5029417;28;20553;-86
2020/12/04 08:23:31;;;;;;;1.55;0.52;;;5.80;99.90;;;;;;5012364;28;20084;-85
2020/12/04 08:25:56;;;;;;;2.78;0.60;;;5.80;99.90;;;;;;5045861;28;20041;-85
2020/12/04 08:28:22;;;;;;;2.78;0.60;;;5.80;99.90;;;;;;5029020;28;20029;-85
2020/12/04 08:30:47;;;;;;;1.95;0.50;;;5.80;99.90;;;;;;5042895;28;20056;-84
2020/12/04 08:33:13;;;;;;;1.30;0.50;;;5.80;99.90;;;;;;5045768;28;20089;-85
2020/12/04 08:35:40;;;;;;;3.25;0.50;;;5.70;99.90;;;;;;5044593;28;20397;-83
2020/12/04 08:38:13;;;;;;;2.83;0.50;;;5.70;99.90;;;;;;5028498;28;20030;-85
2020/12/04 08:40:42;;;;;;;1.40;0.60;;;5.70;99.90;;;;;;5025778;28;20041;-85
2020/12/04 08:43:16;;;;;;;1.17;0.40;;;5.70;99.90;;;;;;5041780;28;20034;-86
2020/12/04 08:45:46;;;;;;;1.20;0.40;;;5.70;99.90;;;;;;5035351;28;20072;-85
2020/12/04 08:48:26;;;;;;;1.38;0.40;;;5.70;99.90;;;;;;5049293;28;20097;-83
2020/12/04 08:51:00;;;;;;;1.50;0.45;;;5.70;99.90;;;;;;5033699;28;20038;-84
2020/12/04 08:53:26;;;;;;;1.45;0.50;;;5.70;99.90;;;;;;5020992;28;20124;-84
2020/12/04 08:55:54;;;;;;;1.70;0.70;;;5.60;99.90;;;;;;5018656;28;20022;-83
2020/12/04 08:58:21;;;;;;;1.40;0.50;;;5.60;99.90;;;;;;5043900;28;20033;-83
2020/12/04 09:00:48;;;;;;;1.58;0.52;;;5.60;99.90;;;;;;5037107;28;20034;-84
2020/12/04 09:03:15;;;;;;;1.25;0.45;;;5.60;99.90;;;;;;5025878;28;20087;-85
2020/12/04 09:05:41;;;;;;;2.00;0.57;;;5.70;99.90;;;;;;5026513;28;20093;-84
2020/12/04 09:08:07;;;;;;;1.08;0.43;;;5.80;99.90;;;;;;5018941;28;20050;-84
2020/12/04 09:10:34;;;;;;;1.40;0.50;;;5.80;99.90;;;;;;5001155;28;20026;-85
2020/12/04 09:13:00;;;;;;;2.42;0.60;;;5.90;99.90;;;;;;5020055;28;20045;-84
2020/12/04 09:15:27;;;;;;;1.77;0.40;;;6.00;99.90;;;;;;5025759;28;20034;-84
2020/12/04 09:17:55;;;;;;;1.10;0.40;;;6.10;99.90;;;;;;5030410;28;20034;-85
2020/12/04 09:20:20;;;;;;;0.90;0.30;;;6.10;99.90;;;;;;5028895;28;20055;-84
2020/12/04 09:22:46;;;;;;;1.20;0.40;;;6.20;99.90;;;;;;5020748;28;20096;-84
2020/12/04 09:25:13;;;;;;;1.08;0.40;;;6.40;99.90;;;;;;5036514;28;20029;-84
2020/12/04 09:27:40;;;;;;;1.83;0.40;;;6.60;99.90;;;;;;5026611;28;20406;-85
2020/12/04 09:30:08;;;;;;;1.52;0.40;;;6.60;99.90;;;;;;5007969;28;20037;-84
2020/12/04 09:32:33;;;;;;;1.20;0.35;;;6.60;99.90;;;;;;5031863;28;20036;-85
2020/12/04 09:34:59;;;;;;;3.83;0.40;;;6.50;99.90;;;;;;5007305;28;20037;-85
2020/12/04 09:37:28;;;;;;;1.10;0.30;;;6.40;99.90;;;;;;5007838;28;20025;-85
2020/12/04 09:39:58;;;;;;;1.73;0.50;;;6.40;99.90;;;;;;5048494;28;20030;-86
2020/12/04 09:42:26;;;;;;;2.38;0.30;;;6.30;99.90;;;;;;5005625;28;20062;-85
2020/12/04 09:44:52;;;;;;;1.15;0.30;;;6.40;99.90;;;;;;5025965;28;20076;-84
2020/12/04 09:47:20;;;;;;;2.22;0.38;;;6.50;99.90;;;;;;5026640;28;20041;-84
2020/12/04 09:49:46;;;;;;;2.33;0.20;;;6.50;99.90;;;;;;5016743;28;20055;-85
2020/12/04 09:52:13;;;;;;;1.90;0.30;;;6.60;99.90;;;;;;5026765;28;20041;-84
2020/12/04 09:54:41;;;;;;;0.60;0.20;;;6.60;99.90;;;;;;5019192;28;20152;-85
2020/12/04 09:57:09;;;;;;;0.70;0.25;;;6.70;99.90;;;;;;5021325;28;20033;-84
2020/12/04 09:59:35;;;;;;;0.70;0.20;;;6.70;99.90;;;;;;5046512;28;20065;-85
2020/12/04 10:02:02;;;;;;;0.98;0.20;;;6.70;99.90;;;;;;5002835;28;20083;-84
2020/12/04 10:04:28;;;;;;;0.82;0.20;;;6.70;99.90;;;;;;5016510;28;20030;-84
2020/12/04 10:06:53;;;;;;;0.30;0.10;;;6.80;99.90;;;;;;5031545;23;20072;-84
2020/12/04 10:09:20;;;;;;;0.30;0.10;;;6.90;99.90;;;;;;5029062;28;20110;-84
2020/12/04 10:11:47;;;;;;;0.47;0.10;;;7.00;99.90;;;;;;5029173;28;20029;-84
2020/12/04 10:14:14;;;;;;;0.20;0.10;;;7.00;99.90;;;;;;5049783;28;20037;-84
2020/12/04 10:16:43;;;;;;;0.38;0.00;;;7.20;99.90;;;;;;5038681;28;20029;-85
2020/12/04 10:19:11;;;;;;;0.55;0.00;;;7.10;99.90;;;;;;5019676;28;20048;-84
2020/12/04 10:21:38;;;;;;;0.13;0.00;;;7.10;99.90;;;;;;5022738;28;20061;-83
2020/12/04 10:24:06;;;;;;;0.63;0.10;;;7.10;99.90;;;;;;5031103;28;20040;-84
2020/12/04 10:26:36;;;;;;;1.67;0.00;;;7.10;99.90;;;;;;5032180;28;20029;-83
2020/12/04 10:29:02;;;;;;;0.00;0.00;;;7.10;99.90;;;;;;5025699;28;20029;-83
2020/12/04 10:31:27;;;;;;;0.03;0.00;;;7.20;99.90;;;;;;5036532;28;20568;-84
2020/12/04 10:33:53;;;;;;;0.38;0.00;;;7.30;99.90;;;;;;5043812;28;20056;-85
2020/12/04 10:36:19;;;;;;;0.10;0.00;;;7.30;99.90;;;;;;5024828;28;20033;-86
2020/12/04 10:38:44;;;;;;;0.00;0.00;;;7.30;99.90;;;;;;5043838;28;20038;-83
2020/12/04 10:41:10;;;;;;;0.05;0.00;;;7.30;99.90;;;;;;5037456;28;20307;-85
2020/12/04 10:43:36;;;;;;;0.63;0.00;;;7.30;99.90;;;;;;5024170;28;20053;-86
2020/12/04 10:46:01;;;;;;;1.17;0.00;;;7.30;99.90;;;;;;5052344;28;20039;-86
2020/12/04 10:48:27;;;;;;;1.02;0.00;;;7.20;99.90;;;;;;5039333;28;20030;-87
2020/12/04 10:50:52;;;;;;;0.20;0.00;;;7.20;99.90;;;;;;5042505;28;20046;-88
2020/12/04 10:53:22;;;;;;;0.15;0.00;;;7.30;99.90;;;;;;5058396;28;20049;-86
2020/12/04 10:55:48;;;;;;;0.20;0.00;;;7.40;99.90;;;;;;5042407;28;20381;-87
2020/12/04 10:58:13;;;;;;;0.10;0.00;;;7.40;99.90;;;;;;5055098;28;20025;-84
2020/12/04 11:00:39;;;;;;;0.47;0.00;;;7.30;99.90;;;;;;5042013;28;20021;-87
2020/12/04 11:03:43;;;;;;;0.35;0.20;;;7.20;99.90;;;;;;5036901;28;20031;-86
2020/12/04 11:05:57;;;;;;;0.20;0.00;;;7.20;99.90;;;;;;5054254;28;20079;-89
2020/12/04 11:08:23;;;;;;;0.10;0.00;;;7.20;99.90;;;;;;5057672;28;20036;-90
2020/12/04 11:10:48;;;;;;;1.20;0.10;;;7.30;99.90;;;;;;5044378;28;20033;-88
2020/12/04 11:13:14;;;;;;;0.43;0.00;;;7.30;99.90;;;;;;5046704;28;20045;-88
2020/12/04 11:15:41;;;;;;;0.35;0.10;;;7.30;99.90;;;;;;5057725;28;20055;-88
2020/12/04 11:18:07;;;;;;;0.35;0.00;;;7.40;99.90;;;;;;5050204;28;20032;-85
2020/12/04 11:20:32;;;;;;;0.03;0.00;;;7.40;99.90;;;;;;5053843;28;20041;-86
2020/12/04 11:22:58;;;;;;;0.38;0.00;;;7.50;99.90;;;;;;5063392;28;20211;-89
2020/12/04 11:25:24;;;;;;;0.15;0.00;;;7.50;99.90;;;;;;5051602;28;20025;-86
2020/12/04 11:27:50;;;;;;;0.10;0.00;;;7.70;99.90;;;;;;5055269;28;20040;-89
2020/12/04 11:30:21;;;;;;;0.55;0.03;;;7.80;99.90;;;;;;5069959;28;20040;-89
2020/12/04 11:32:47;;;;;;;0.20;0.08;;;7.70;99.90;;;;;;5047134;28;20025;-86
2020/12/04 11:35:15;;;;;;;0.08;0.00;;;7.60;99.90;;;;;;5042758;28;20055;-87
2020/12/04 11:37:42;;;;;;;0.20;0.00;;;7.50;99.90;;;;;;5037835;28;20017;-88
2020/12/04 11:40:10;;;;;;;0.30;0.00;;;7.30;99.90;;;;;;5042547;28;20055;-86
2020/12/04 11:42:39;;;;;;;0.10;0.00;;;7.30;99.90;;;;;;5042793;28;20037;-85
2020/12/04 11:45:10;;;;;;;0.57;0.00;;;7.20;99.90;;;;;;5028824;28;20045;-86
2020/12/04 11:47:39;;;;;;;0.30;0.00;;;7.20;99.90;;;;;;5043889;28;20134;-86
2020/12/04 11:50:11;;;;;;;0.03;0.00;;;7.20;99.90;;;;;;5054705;28;20040;-85
2020/12/04 11:52:37;;;;;;;0.05;0.00;;;7.30;99.90;;;;;;5043117;28;20037;-86
2020/12/04 11:55:04;;;;;;;0.20;0.00;;;7.30;99.90;;;;;;5057560;28;20166;-87
2020/12/04 11:57:30;;;;;;;0.30;0.10;;;7.30;99.90;;;;;;5036825;28;20076;-89
2020/12/04 11:59:56;;;;;;;0.13;0.00;;;7.30;99.90;;;;;;5050276;28;20041;-85
2020/12/04 12:02:21;;;;;;;0.38;0.00;;;7.40;99.90;;;;;;5033610;28;20028;-88
2020/12/04 12:04:47;;;;;;;0.47;0.00;;;7.50;99.90;;;;;;5040921;28;20037;-86
2020/12/04 12:07:13;;;;;;;0.70;0.00;;;7.70;99.90;;;;;;5036844;28;20046;-88
2020/12/04 12:09:38;;;;;;;0.00;0.00;;;7.70;99.90;;;;;;5033561;28;20025;-86
2020/12/04 12:12:04;;;;;;;0.00;0.00;;;7.70;99.90;;;;;;5031613;28;20056;-89
2020/12/04 12:14:30;;;;;;;0.17;0.00;;;7.70;99.90;;;;;;5046603;28;20032;-87
2020/12/04 12:16:56;;;;;;;0.30;0.00;;;7.70;99.90;;;;;;5029645;28;20093;-84
2020/12/04 12:19:21;;;;;;;0.25;0.00;;;7.80;99.90;;;;;;5049983;28;20052;-88
2020/12/04 12:21:48;;;;;;;0.85;0.00;;;7.80;99.90;;;;;;5054740;28;20039;-86
2020/12/04 12:24:14;;;;;;;0.98;0.00;;;8.00;99.90;;;;;;5045817;28;20052;-87
2020/12/04 12:26:40;;;;;;;0.00;0.00;;;8.00;99.90;;;;;;5037867;28;20029;-87
2020/12/04 12:29:05;;;;;;;0.22;0.00;;;8.10;99.90;;;;;;5039825;28;20028;-85
2020/12/04 12:31:31;;;;;;;0.20;0.00;;;7.90;99.90;;;;;;5056878;28;20861;-86
2020/12/04 12:33:57;;;;;;;0.35;0.00;;;7.80;99.90;;;;;;5050141;28;20033;-85
2020/12/04 12:36:31;;;;;;;0.38;0.00;;;7.80;99.90;;;;;;5061508;28;20048;-86
2020/12/04 12:38:59;;;;;;;0.00;0.00;;;7.80;99.90;;;;;;5060030;28;20048;-86
2020/12/04 12:41:25;;;;;;;1.00;0.00;;;7.80;99.90;;;;;;5063225;28;20061;-86
2020/12/04 12:43:50;;;;;;;0.20;0.00;;;7.70;99.90;;;;;;5036084;28;20033;-85
2020/12/04 12:46:16;;;;;;;0.28;0.00;;;7.70;99.90;;;;;;5038609;28;20065;-86
2020/12/04 12:48:42;;;;;;;0.32;0.00;;;7.60;99.90;;;;;;5037148;28;20196;-88
2020/12/04 12:51:08;;;;;;;1.10;0.10;;;7.70;99.90;;;;;;5034335;28;20041;-86
2020/12/04 12:53:42;;;;;;;1.33;0.00;;;7.80;99.90;;;;;;5043654;28;20037;-85
2020/12/04 12:56:08;;;;;;;0.70;0.00;;;7.80;99.90;;;;;;5030830;28;20404;-85
2020/12/04 12:58:34;;;;;;;1.58;0.00;;;7.80;99.90;;;;;;5039318;28;20049;-88
2020/12/04 13:00:59;;;;;;;0.00;0.00;;;7.60;99.90;;;;;;5040928;28;20481;-85
2020/12/04 13:03:25;;;;;;;0.40;0.00;;;7.70;99.90;;;;;;5049825;28;20057;-85